Terminal Aerodrome Forecast
Issued by NWS

Home | Current Version | Previous Version | Text Only | Print | Product List | Glossary On
Versions: 1 2 3 4 5 6 7 8 9 10 11 12 13 14 15 16 17 18 19 20 21 22
000
FTUS44 KLIX 072035 AAA
TAFHUM
TAF AMD
KHUM 072035Z 0721/0818 11006KT P6SM OVC015
     FM072300 09006KT P6SM BKN035
     FM080300 09006KT P6SM BKN015
     FM081000 07008KT P6SM OVC008
     FM081500 05013KT P6SM OVC010=

USA.gov is the U.S. government's official web portal to all federal, state and local government web resources and services.